Briefing drone pour Grigny

Rechercher une autre localisation

Conditions de vol :


Nous sommes le : Jeudi 26 mai 2022
Il est 04:56 UTC (06:56 LT)

Lever de soleil : 03:32 UTC (05:32 LT)
Coucher de soleil : 19:42 UTC (21:42 LT)

Météo

L'essentiel des conditions de vol

VIGILANCE MÉTÉO FRANCE - Rhône (69)
Pas de vigilances particulieres
CARTE TEMSI
CARTES DES FRONTS
METAR de LFLL
LFLL 260430Z VRB02KT CAVOK 12/08 Q1024 NOSIG

Date d'émission: 26/05/2022
Heure d'émission: 04:30 UTC
Vent: Variable 2 KT (4 km/h)
Visibilité horizontale: > 10 km
Plafond : Plafond et visibilité OK (CAVOK)
Température: 12 °C
Point de rosée: 8 °C
Humidité: 77%
Pression (QNH): 1024 hPa
Conditions: Pas de changement dans les 2 heures (NOSIG)
TAF de LFLL
LFLL 251700Z 2518/2624 35015KT CAVOK TEMPO 2521/2608 35005KT

Conditions prévues :

Heure d'émission : Bulletin éffectué le 25 à 18:00 UTC
Prévision : Valide du 25 a 18:00 UTC au 26 a 23:59 UTC
Vent : 350° pour 15 KT (28 km/h)
Visibilité : > 10 km

Temporairement :

Prévision : Valide du 25 a 21:00 UTC au 26 a 08:00 UTC
Vent : 350° pour 5 KT (9 km/h)
WEBCAM POUR GRIGNY

Réglementation

Voler en sécurité

CARTES AERONAUTIQUE 1/500.000
CARTES VAC (LFLL)
SUP AIP




Chargement des AIP...
NOTAM (GRIGNY + Terrain à proximité / FIR )




Chargement des NOTAMS...
CONTACT PREFECTURE 69


Avertissement : Les données mises à disposition sont indicatives. Oxygène Drone ne pourra être tenu responsable de dégâts causés aux biens et aux personnes.